TNCMTLPC

Guest
Details From TNCM - St Maarten - Princess Juliana Intl
To TLPC - Castries/George F L Charles
Flight Number -
Tags generated
Created
Modified
Stats Distance 279 nm / 516 km
Max Altitude 35,000 ft / 10,668 m
Waypoints 5
Social Downloads 1
Likes 0
Share VATSIM

Download

Looking for another format? Having issues loading an existing format? Contact us
Advertisement - Login to hide

Notes

Basic altitude profile: - Ascent Rate: 2500ft/min - Ascent Speed: 250kts - Cruise Altitude: 21000ft - Cruise Speed: 420kts - Descent Rate: 1500ft/min - Descent Speed: 250kts Options: - Use NATs: yes - Use PACOTS: yes - Use low airways: yes - Use high airways: yes

Route

TNCM BIMBO A517 PPR A312 DOM TLPC

ID Type Via Altitude Latitude Longitude Leg Dist Tot Dist Heading (true) Name
O TNCM APT - 0 ft / 0 m 18.04089˚ -63.10897˚ - 0 nm - St Maarten - Princess Juliana Intl
BIMBO FIX - 35,000 ft / 10,668 m 16.62667˚ -61.96028˚ 107 nm 107 nm 142° / 142° -
PPR DME A517 (AWY-LO) 29,700 ft / 9,053 m 16.26519˚ -61.54014˚ 32 nm 139 nm 132° / 132° POINTE A PITRE VOR-DME
DOM NDB A312 (AWY-LO) 20,000 ft / 6,096 m 15.55094˚ -61.29564˚ 45 nm 185 nm 162° / 162° MELVILLE HALL NDB
O TLPC APT - 0 ft / 0 m 14.01970˚ -60.99339˚ 93 nm 278 nm 169° / 169° Castries/George F L Charles

Altitude Profile

Advertisement - Login to hide

Weather


0- 5 10 15 20 25 30 35+ Temperature / ° C

Clouds and Precipitation
Forecast for 2018-07-21 06:00 UTC. Updated 4 hours ago

Ground ~20,000 ft ~40,000 ft Winds

TNCM

Details ICAO TNCM (SXM)
Name St Maarten - Princess Juliana Intl
Region Caribbean Netherlands, Aruba, Curaçao, Sint Maarten
Timezone Unknown (UTC+0.0)
Stats Elevation 12 ft / 4 m (AMSL)
Location 18.040889° -63.108974°
Runways 1
Magnetic Variation 14.341° W

METAR

TNCM 210700Z 09007KT 050V110 9999 FEW020 28/23 Q1016 A3003 RMK LGT HZ ALQDS

Decode

TAF

TAF TNCM 210520Z 2106/2206 08010KT P6SM VCSH FEW018 SCT035 FM211430 11012KT P6SM FEW020 SCT050 FM212100 07008KT P6SM SCT019

Decode

Departure Runways

ID Width Length Bearing (true) Bearing (mag) Surface Threshold Offset Overrun Length
10 148 ft / 45 m 7,464 ft / 2,275 m 81.43° 95.77° Asphalt 0 ft / 0 m 151 ft / 46 m
28 148 ft / 45 m 7,464 ft / 2,275 m 261.44° 275.78° Asphalt 397 ft / 121 m 0 ft / 0 m

TLPC

Details ICAO TLPC (SLU)
Name Castries/George F L Charles
Region Saint Lucia
Timezone America/St_Lucia (UTC-4.0)
Stats Elevation 22 ft / 7 m (AMSL)
Location 14.019704° -60.993394°
Runways 1
Magnetic Variation 15.092° W

METAR

Not found

TAF

TLPC 210500Z 2106/2206 09010G21KT 9999 SCT024 PROB30 TEMPO 2109/2115 SHRA

Decode

Destination Runways

ID Width Length Bearing (true) Bearing (mag) Surface Threshold Offset Overrun Length
09 148 ft / 45 m 5,731 ft / 1,747 m 75.34° 90.43° Asphalt 400 ft / 122 m 0 ft / 0 m
27 148 ft / 45 m 5,731 ft / 1,747 m 255.34° 270.43° Asphalt 925 ft / 282 m 0 ft / 0 m

Popular Alternatives